Time;durP1;ratioP1;P1;durP2;ratioP2;P2;SDS_P1;SDS_P2;PMS_P1;PMS_P2;Temp;Humidity;BMP_temperature;BMP_pressure;BME280_temperature;BME280_humidity;BME280_pressure;Samples;Min_cycle;Max_cycle;Signal;HPM_P1;HPM_P2
2023/09/24 00:02:23;;;;;;;7.97;3.22;;;;;;;19.25;37.48;100160.28;5063144;28;20060;-37
2023/09/24 00:04:48;;;;;;;4.78;3.20;;;;;;;19.28;37.50;100157.44;5079163;28;20044;-37
2023/09/24 00:07:15;;;;;;;11.85;3.83;;;;;;;19.35;37.36;100166.66;5074393;28;20057;-38
2023/09/24 00:09:42;;;;;;;9.23;3.38;;;;;;;19.33;37.44;100155.34;5071883;28;20142;-37
2023/09/24 00:12:08;;;;;;;11.13;4.35;;;;;;;19.42;37.53;100161.84;5057184;28;20045;-38
2023/09/24 00:14:34;;;;;;;10.48;3.50;;;;;;;19.43;37.87;100155.63;5056730;28;20028;-38
2023/09/24 00:17:00;;;;;;;7.00;3.38;;;;;;;19.44;37.82;100146.78;5075692;28;20066;-38
2023/09/24 00:19:26;;;;;;;6.90;3.42;;;;;;;19.43;37.82;100155.63;5077436;28;20050;-39
2023/09/24 00:21:53;;;;;;;6.20;3.30;;;;;;;19.46;38.03;100150.22;5059625;28;20044;-38
2023/09/24 00:24:18;;;;;;;12.43;3.75;;;;;;;19.44;37.98;100160.84;5070394;28;20082;-38
2023/09/24 00:26:45;;;;;;;8.52;3.30;;;;;;;19.43;38.04;100161.75;5068696;28;20461;-37
2023/09/24 00:29:12;;;;;;;7.90;3.65;;;;;;;19.48;37.72;100156.22;5076055;28;20466;-38
2023/09/24 00:31:38;;;;;;;9.68;3.22;;;;;;;19.34;37.85;100135.13;5077497;28;20063;-38
2023/09/24 00:34:04;;;;;;;6.50;3.38;;;;;;;19.34;37.83;100143.03;5069454;28;20552;-37
2023/09/24 00:36:29;;;;;;;7.80;3.25;;;;;;;19.36;37.79;100142.00;5074206;28;20068;-38
2023/09/24 00:38:55;;;;;;;7.47;3.10;;;;;;;19.55;37.77;100160.16;5073449;28;20075;-39
2023/09/24 00:41:21;;;;;;;5.47;3.15;;;;;;;19.57;37.70;100168.84;5060932;28;20041;-39
2023/09/24 00:43:48;;;;;;;7.47;3.63;;;;;;;19.59;37.84;100171.34;5059457;28;20059;-39
2023/09/24 00:46:14;;;;;;;9.70;3.72;;;;;;;19.41;37.80;100139.91;5056520;28;20425;-38
2023/09/24 00:48:40;;;;;;;8.02;3.08;;;;;;;19.60;37.91;100167.78;5037293;28;20043;-38
2023/09/24 00:51:16;;;;;;;17.55;3.33;;;;;;;19.61;37.98;100165.06;5081502;28;20044;-38
2023/09/24 00:53:42;;;;;;;5.28;3.20;;;;;;;19.63;38.01;100164.94;5080001;28;20037;-39
2023/09/24 00:56:09;;;;;;;7.35;3.20;;;;;;;19.47;37.94;100135.22;5077061;28;20109;-39
2023/09/24 00:58:35;;;;;;;10.52;3.65;;;;;;;19.69;37.85;100169.81;5076347;28;20036;-38
2023/09/24 01:01:05;;;;;;;8.48;3.35;;;;;;;19.69;38.04;100160.13;5073489;28;20079;-38
2023/09/24 01:03:31;;;;;;;5.75;2.88;;;;;;;19.71;38.05;100162.66;5078298;28;20111;-38
2023/09/24 01:05:58;;;;;;;9.30;3.40;;;;;;;19.59;37.96;100140.56;5078172;28;20051;-39
2023/09/24 01:08:33;;;;;;;5.68;3.25;;;;;;;19.71;38.00;100160.88;5076384;28;20142;-38
2023/09/24 01:11:01;;;;;;;8.23;3.17;;;;;;;19.72;37.95;100162.56;5074687;28;20047;-38
2023/09/24 01:13:39;;;;;;;7.43;3.33;;;;;;;19.72;38.09;100154.66;5080409;28;20601;-38
2023/09/24 01:16:07;;;;;;;14.27;3.50;;;;;;;19.73;38.06;100158.16;5056203;28;20196;-37
2023/09/24 01:18:37;;;;;;;5.75;3.08;;;;;;;19.72;37.92;100156.44;5061412;28;20036;-38
2023/09/24 01:21:26;;;;;;;5.53;2.83;;;;;;;19.72;38.18;100156.44;5027864;28;20056;-39
2023/09/24 01:23:52;;;;;;;6.73;3.13;;;;;;;19.69;38.27;100149.56;5075452;28;20044;-38
2023/09/24 01:26:19;;;;;;;13.73;3.63;;;;;;;19.67;38.33;100150.63;5054119;28;20664;-37
2023/09/24 01:28:45;;;;;;;8.68;3.00;;;;;;;19.66;38.43;100151.56;5079155;28;20036;-38
2023/09/24 01:31:11;;;;;;;8.40;3.25;;;;;;;19.63;38.57;100149.94;5079682;28;20558;-37
2023/09/24 01:33:39;;;;;;;8.77;3.20;;;;;;;19.62;38.48;100156.19;5078077;28;20070;-38
2023/09/24 01:36:07;;;;;;;10.85;3.92;;;;;;;19.55;38.47;100139.06;5070633;28;20124;-38
2023/09/24 01:38:33;;;;;;;6.38;3.60;;;;;;;19.62;38.60;100163.25;5060047;28;20143;-38
2023/09/24 01:41:00;;;;;;;10.05;3.53;;;;;;;19.60;38.73;100159.88;5074294;28;20522;-38
2023/09/24 01:43:26;;;;;;;8.27;3.65;;;;;;;19.59;38.72;100159.00;5090619;28;20036;-38
2023/09/24 01:45:52;;;;;;;10.73;4.10;;;;;;;19.58;38.88;100153.81;5034535;28;20036;-38
2023/09/24 01:48:18;;;;;;;7.43;3.42;;;;;;;19.56;38.81;100155.75;5072081;28;20534;-38
2023/09/24 01:50:44;;;;;;;5.35;3.80;;;;;;;19.52;38.89;100146.34;5077946;28;20049;-37
2023/09/24 01:53:10;;;;;;;11.63;3.65;;;;;;;19.47;39.12;100136.03;5071427;28;20040;-39
2023/09/24 01:55:36;;;;;;;8.63;3.33;;;;;;;19.43;39.23;100139.78;5075927;28;20051;-38
2023/09/24 01:58:03;;;;;;;11.73;3.67;;;;;;;19.44;39.09;100141.50;5074838;28;20037;-38
2023/09/24 02:00:29;;;;;;;8.32;3.25;;;;;;;19.43;39.25;100150.34;5072588;28;20040;-39
2023/09/24 02:02:59;;;;;;;9.50;3.75;;;;;;;19.41;39.36;100147.84;5074440;28;20040;-37
2023/09/24 02:05:32;;;;;;;8.80;3.60;;;;;;;19.40;39.38;100148.75;5073703;28;20558;-37
2023/09/24 02:07:59;;;;;;;9.70;3.55;;;;;;;19.41;39.38;100136.44;5065875;28;20052;-37
2023/09/24 02:10:26;;;;;;;10.10;3.78;;;;;;;19.23;39.34;100106.78;5079663;28;20040;-38
2023/09/24 02:12:52;;;;;;;10.70;3.85;;;;;;;19.40;39.31;100145.28;5063725;28;20062;-38
2023/09/24 02:15:19;;;;;;;7.18;3.50;;;;;;;19.38;39.57;100147.16;5061426;28;20036;-38
2023/09/24 02:17:48;;;;;;;8.13;3.75;;;;;;;19.37;39.58;100140.19;5080054;28;20048;-38
2023/09/24 02:22:50;;;;;;;7.68;3.65;;;;;;;19.34;39.68;100143.03;5062601;28;20563;-38
2023/09/24 02:25:20;;;;;;;7.40;3.42;;;;;;;19.31;39.82;100146.69;5075396;28;20036;-39
2023/09/24 02:27:50;;;;;;;10.45;3.97;;;;;;;19.30;40.12;100144.16;5066467;28;20517;-38
2023/09/24 02:30:17;;;;;;;10.55;4.03;;;;;;;19.28;40.35;100135.50;5080952;28;20077;-38
2023/09/24 02:32:44;;;;;;;6.15;3.72;;;;;;;19.23;40.82;100140.22;5077549;28;20297;-38
2023/09/24 02:35:13;;;;;;;9.57;3.90;;;;;;;19.17;41.19;100137.94;5075929;28;20525;-37
2023/09/24 02:37:59;;;;;;;13.05;3.80;;;;;;;19.10;41.64;100144.56;5062062;28;20089;-38
2023/09/24 02:40:27;;;;;;;13.82;4.43;;;;;;;19.04;41.74;100148.44;5075201;28;20052;-39
2023/09/24 02:42:54;;;;;;;14.82;3.90;;;;;;;18.97;41.98;100137.41;5074490;28;20174;-38
2023/09/24 02:45:21;;;;;;;9.85;4.00;;;;;;;18.91;41.98;100132.50;5053909;28;20051;-39
2023/09/24 02:47:50;;;;;;;10.25;4.00;;;;;;;18.87;42.28;100144.19;5067410;28;20170;-38
2023/09/24 02:50:22;;;;;;;16.63;4.15;;;;;;;18.84;42.72;100144.34;5068655;28;20118;-38
2023/09/24 02:52:49;;;;;;;12.45;3.85;;;;;;;18.79;43.06;100140.34;5070577;28;20043;-38
2023/09/24 02:55:15;;;;;;;7.32;3.83;;;;;;;18.73;43.05;100143.34;5080703;28;20428;-38
2023/09/24 02:57:44;;;;;;;7.45;4.00;;;;;;;18.67;43.11;100147.19;5070993;28;20420;-37
2023/09/24 03:00:20;;;;;;;8.57;3.58;;;;;;;18.64;43.34;100147.34;5079324;28;20168;-38
2023/09/24 03:02:47;;;;;;;5.57;3.40;;;;;;;18.60;43.51;100153.75;5077529;28;20217;-38
2023/09/24 03:05:20;;;;;;;9.95;3.92;;;;;;;18.55;43.36;100145.28;5056428;28;20045;-38
2023/09/24 03:08:00;;;;;;;8.57;3.90;;;;;;;18.49;43.42;100138.56;5076074;28;20817;-38
2023/09/24 03:10:26;;;;;;;11.73;3.60;;;;;;;18.45;43.54;100133.56;5071713;28;20473;-37
2023/09/24 03:12:54;;;;;;;8.50;3.45;;;;;;;18.24;43.51;100113.78;5058805;28;20044;-39
2023/09/24 03:15:20;;;;;;;12.25;4.68;;;;;;;18.33;43.67;100150.09;5078938;28;20044;-38
2023/09/24 03:17:46;;;;;;;9.35;3.97;;;;;;;18.09;44.11;100126.91;5078600;28;20655;-38
2023/09/24 03:20:17;;;;;;;7.70;4.20;;;;;;;18.04;44.15;100126.31;5080313;28;20066;-38
2023/09/24 03:23:10;;;;;;;11.07;3.72;;;;;;;18.12;44.50;100152.19;5055878;28;20143;-38
2023/09/24 03:25:37;;;;;;;7.32;3.70;;;;;;;18.04;44.46;100155.28;5062521;28;20043;-38
2023/09/24 03:28:03;;;;;;;9.70;3.90;;;;;;;17.84;44.46;100125.78;5078085;28;20036;-37
2023/09/24 03:30:30;;;;;;;12.20;4.57;;;;;;;17.77;44.95;100120.84;5077802;28;20047;-38
2023/09/24 03:32:57;;;;;;;8.48;4.40;;;;;;;17.86;45.62;100156.31;5078957;28;20354;-38
2023/09/24 03:35:26;;;;;;;9.80;4.20;;;;;;;17.69;45.87;100138.03;5070600;28;20044;-38
2023/09/24 03:37:53;;;;;;;13.88;4.18;;;;;;;17.79;46.01;100161.06;5081685;28;20043;-38
2023/09/24 03:40:24;;;;;;;19.38;4.07;;;;;;;17.59;46.39;100135.03;5061944;28;20122;-38
2023/09/24 03:42:50;;;;;;;11.15;4.13;;;;;;;17.71;46.44;100159.81;5052784;28;20076;-39
2023/09/24 03:45:17;;;;;;;17.25;4.45;;;;;;;17.66;46.51;100157.44;5069560;28;20053;-37
2023/09/24 03:47:45;;;;;;;12.00;4.57;;;;;;;17.63;46.46;100159.41;5076030;28;20753;-38
2023/09/24 03:50:17;;;;;;;13.27;5.05;;;;;;;17.61;46.37;100161.25;5075846;28;20484;-38
2023/09/24 03:52:45;;;;;;;7.30;3.85;;;;;;;17.37;46.29;100121.38;5077061;28;20040;-37
2023/09/24 03:55:12;;;;;;;7.75;4.22;;;;;;;17.58;46.23;100159.63;5054043;28;20052;-37
2023/09/24 03:57:39;;;;;;;9.50;4.07;;;;;;;17.58;45.84;100164.88;5071768;28;20508;-38
2023/09/24 04:00:15;;;;;;;14.18;4.25;;;;;;;17.61;46.03;100169.13;5079515;28;20484;-39
2023/09/24 04:02:47;;;;;;;13.10;4.53;;;;;;;17.58;46.11;100164.88;5075585;28;20043;-39
2023/09/24 04:05:18;;;;;;;7.95;4.13;;;;;;;17.57;46.64;100175.47;5075153;28;20504;-39
2023/09/24 04:07:46;;;;;;;11.70;3.97;;;;;;;17.59;46.24;100173.59;5078276;28;20048;-39
2023/09/24 04:10:14;;;;;;;20.35;3.97;;;;;;;17.66;45.75;100170.59;5029636;28;20516;-39
2023/09/24 04:12:46;;;;;;;35.35;5.35;;;;;;;17.69;45.77;100172.22;5059443;28;20098;-38
2023/09/24 04:15:14;;;;;;;10.02;4.28;;;;;;;17.68;46.03;100171.34;5078058;28;20052;-38
2023/09/24 04:17:40;;;;;;;9.57;4.10;;;;;;;17.73;46.38;100166.69;5075311;28;20067;-39
2023/09/24 04:20:15;;;;;;;11.35;3.92;;;;;;;17.74;46.08;100171.00;5077557;28;20056;-38
2023/09/24 04:22:44;;;;;;;8.93;4.05;;;;;;;17.79;46.32;100168.13;5067365;28;20045;-38
2023/09/24 04:25:14;;;;;;;6.45;4.28;;;;;;;17.82;46.41;100169.72;5076364;28;20052;-38
2023/09/24 04:27:44;;;;;;;12.05;4.70;;;;;;;17.89;46.10;100169.31;5075529;28;20502;-38
2023/09/24 04:30:15;;;;;;;8.88;4.28;;;;;;;17.96;46.12;100172.41;5083362;28;20043;-38
2023/09/24 04:32:42;;;;;;;15.70;3.88;;;;;;;18.05;46.33;100167.50;5081199;28;20039;-38
2023/09/24 04:35:09;;;;;;;9.82;3.92;;;;;;;18.10;45.87;100168.09;5079529;28;20041;-38
2023/09/24 04:37:35;;;;;;;9.70;3.67;;;;;;;18.14;45.50;100158.22;5079236;28;20032;-38
2023/09/24 04:40:05;;;;;;;10.18;3.95;;;;;;;18.25;45.23;100174.25;5069445;28;20139;-38
2023/09/24 04:42:31;;;;;;;9.57;4.20;;;;;;;18.33;45.24;100166.72;5078432;28;20078;-39
2023/09/24 04:44:57;;;;;;;6.30;3.70;;;;;;;18.36;45.34;100179.72;5073119;28;20032;-38
2023/09/24 04:47:23;;;;;;;11.05;3.85;;;;;;;18.20;45.21;100155.22;5069406;28;20436;-38
2023/09/24 04:49:49;;;;;;;11.70;4.05;;;;;;;18.26;45.40;100172.47;5076959;28;20432;-39
2023/09/24 04:52:15;;;;;;;10.35;4.13;;;;;;;18.17;45.43;100172.03;5079343;28;20040;-38
2023/09/24 04:54:41;;;;;;;9.80;4.60;;;;;;;18.14;45.57;100174.00;5079657;28;20040;-39
2023/09/24 04:57:09;;;;;;;8.02;4.05;;;;;;;18.09;45.63;100176.91;5075385;28;20577;-39
2023/09/24 04:59:35;;;;;;;10.17;4.27;;;;;;;18.05;45.86;100175.41;5076528;28;20783;-39
2023/09/24 05:02:01;;;;;;;15.60;4.10;;;;;;;18.00;46.01;100176.59;5082793;28;20036;-38
2023/09/24 05:04:26;;;;;;;9.70;4.22;;;;;;;17.97;45.91;100190.75;5082251;28;20044;-39
2023/09/24 05:06:54;;;;;;;12.00;4.30;;;;;;;17.97;46.67;100192.53;5060719;28;20055;-39
2023/09/24 05:09:21;;;;;;;8.98;4.85;;;;;;;17.98;46.64;100187.19;5071467;28;20529;-38
2023/09/24 05:11:47;;;;;;;12.88;4.28;;;;;;;18.02;46.64;100195.75;5081373;28;20036;-39
2023/09/24 05:14:13;;;;;;;17.38;6.30;;;;;;;18.10;46.94;100189.13;5041049;28;20436;-38
2023/09/24 05:16:39;;;;;;;16.08;5.53;;;;;;;18.27;47.02;100193.41;5079605;28;20047;-38
2023/09/24 05:19:05;;;;;;;13.20;4.38;;;;;;;18.43;46.63;100194.22;5075642;28;20047;-38
2023/09/24 05:21:31;;;;;;;10.25;4.82;;;;;;;18.60;46.29;100193.25;5091235;28;20421;-38
2023/09/24 05:23:57;;;;;;;9.15;4.15;;;;;;;18.63;45.99;100187.81;5067297;28;20040;-38
2023/09/24 05:26:23;;;;;;;15.52;4.47;;;;;;;18.65;45.91;100195.63;5078109;28;20039;-38
2023/09/24 05:28:49;;;;;;;18.58;5.63;;;;;;;18.70;45.97;100202.31;5079818;28;20055;-39
2023/09/24 05:31:16;;;;;;;11.95;4.45;;;;;;;18.78;46.13;100181.63;5073167;28;20033;-37
2023/09/24 05:33:44;;;;;;;11.63;4.60;;;;;;;19.14;45.60;100207.53;5078378;28;20041;-38
2023/09/24 05:36:11;;;;;;;10.20;4.68;;;;;;;19.37;45.04;100209.59;5077625;28;20047;-38
2023/09/24 05:38:37;;;;;;;7.80;4.30;;;;;;;19.69;44.15;100207.59;5066944;28;20048;-39
2023/09/24 05:41:02;;;;;;;10.43;4.65;;;;;;;20.15;43.04;100202.03;5051087;28;20048;-38
2023/09/24 05:43:28;;;;;;;11.80;4.55;;;;;;;20.70;41.88;100205.34;5051757;28;20041;-38
2023/09/24 05:45:54;;;;;;;12.70;5.00;;;;;;;21.40;40.76;100211.09;5069083;28;20043;-39
2023/09/24 05:48:20;;;;;;;14.07;4.80;;;;;;;22.09;39.79;100212.25;5068628;28;20131;-38
2023/09/24 05:50:46;;;;;;;7.95;4.57;;;;;;;22.66;38.81;100212.34;5067796;28;20288;-38
2023/09/24 05:53:13;;;;;;;12.52;5.13;;;;;;;23.33;38.11;100207.19;5069842;28;20129;-38
2023/09/24 05:55:39;;;;;;;10.25;4.90;;;;;;;23.54;36.52;100192.25;5068299;28;20037;-39
2023/09/24 05:58:09;;;;;;;10.73;4.90;;;;;;;24.25;35.46;100203.31;5067754;28;20136;-41
2023/09/24 06:00:38;;;;;;;10.23;5.03;;;;;;;24.65;34.57;100199.00;5077895;28;20452;-39
2023/09/24 06:03:04;;;;;;;10.70;4.70;;;;;;;25.12;33.81;100205.59;5066404;28;20094;-39
2023/09/24 06:05:30;;;;;;;12.45;5.53;;;;;;;25.57;32.93;100206.13;5051022;28;20402;-39
2023/09/24 06:07:57;;;;;;;12.38;5.00;;;;;;;25.99;32.46;100177.47;5060355;28;20057;-38
2023/09/24 06:10:23;;;;;;;12.93;5.28;;;;;;;26.60;31.36;100184.34;5066777;28;20514;-39
2023/09/24 06:12:50;;;;;;;11.38;4.90;;;;;;;27.01;30.76;100196.53;5078984;28;20036;-38
2023/09/24 06:15:17;;;;;;;9.13;5.50;;;;;;;26.94;30.24;100188.25;5072663;28;20052;-39
2023/09/24 06:17:44;;;;;;;13.75;4.85;;;;;;;27.33;29.92;100196.94;5053841;28;20041;-39
2023/09/24 06:20:11;;;;;;;8.18;4.70;;;;;;;27.75;29.30;100198.16;5068701;28;20047;-39
2023/09/24 06:22:37;;;;;;;8.23;4.88;;;;;;;28.16;28.69;100194.09;5069238;28;20131;-39
2023/09/24 06:25:03;;;;;;;9.57;5.15;;;;;;;28.57;28.04;100194.47;5079319;28;20050;-38
2023/09/24 06:27:31;;;;;;;11.10;4.70;;;;;;;28.79;27.80;100195.81;5062422;28;20089;-38
2023/09/24 06:29:57;;;;;;;8.10;4.90;;;;;;;29.34;27.20;100194.53;5068259;28;20040;-38
2023/09/24 06:32:23;;;;;;;9.55;4.68;;;;;;;29.54;26.76;100181.69;5070004;28;20745;-39
2023/09/24 06:34:49;;;;;;;8.95;4.85;;;;;;;29.77;26.34;100182.78;5064592;28;20098;-37
2023/09/24 06:37:15;;;;;;;8.70;4.88;;;;;;;29.84;26.04;100180.28;5071208;28;20093;-38
2023/09/24 06:39:42;;;;;;;12.80;4.90;;;;;;;30.20;25.72;100179.00;5064867;28;20044;-38
2023/09/24 06:42:08;;;;;;;11.93;4.93;;;;;;;30.26;25.81;100194.44;5067749;28;20068;-39
2023/09/24 06:44:34;;;;;;;12.75;5.20;;;;;;;30.09;25.93;100178.53;5075757;28;20044;-39
2023/09/24 06:47:00;;;;;;;12.68;5.38;;;;;;;30.06;25.93;100178.84;5069284;28;20075;-39
2023/09/24 06:49:26;;;;;;;10.38;5.30;;;;;;;30.13;26.06;100174.50;5069678;28;20036;-39
2023/09/24 06:51:53;;;;;;;10.95;5.25;;;;;;;30.44;25.50;100172.00;5069136;28;20079;-39
2023/09/24 06:54:20;;;;;;;11.25;5.88;;;;;;;30.56;25.51;100168.00;5067050;28;20037;-40
2023/09/24 06:56:46;;;;;;;9.10;5.45;;;;;;;30.79;25.34;100168.13;5052787;28;20051;-38
2023/09/24 06:59:12;;;;;;;9.45;5.13;;;;;;;31.57;24.61;100166.38;5057289;28;20043;-39
2023/09/24 07:01:38;;;;;;;20.20;5.78;;;;;;;32.25;24.18;100163.78;5071323;28;20067;-37
2023/09/24 07:04:05;;;;;;;11.02;5.10;;;;;;;32.63;23.60;100166.50;5074480;28;20048;-38
2023/09/24 07:06:32;;;;;;;8.93;5.38;;;;;;;32.51;23.29;100166.09;5074085;28;20062;-39
2023/09/24 07:08:58;;;;;;;13.90;5.60;;;;;;;32.58;23.36;100171.59;5065665;28;20040;-38
2023/09/24 07:11:34;;;;;;;16.27;5.75;;;;;;;32.49;23.22;100167.31;5080081;28;20047;-38
2023/09/24 07:14:01;;;;;;;13.07;5.20;;;;;;;32.26;23.41;100172.69;5061911;28;20074;-39
2023/09/24 07:16:27;;;;;;;13.32;5.78;;;;;;;31.63;23.82;100171.06;5069207;28;20101;-39
2023/09/24 07:18:54;;;;;;;11.73;5.47;;;;;;;31.43;24.23;100157.19;5068510;28;20047;-39
2023/09/24 07:21:21;;;;;;;11.02;5.18;;;;;;;31.30;24.29;100169.53;5068863;28;20122;-38
2023/09/24 07:23:50;;;;;;;11.52;5.65;;;;;;;31.00;24.56;100158.50;5068365;28;20040;-39
2023/09/24 07:26:17;;;;;;;10.45;5.50;;;;;;;31.25;24.48;100177.28;5064457;28;20047;-41
2023/09/24 07:28:44;;;;;;;13.07;5.55;;;;;;;31.34;24.54;100152.88;5062873;28;20041;-40
2023/09/24 07:31:24;;;;;;;13.32;5.60;;;;;;;31.76;24.11;100175.88;5058717;28;20134;-38
2023/09/24 07:33:54;;;;;;;10.20;5.65;;;;;;;32.82;23.42;100178.63;5060287;28;20101;-39
2023/09/24 07:36:21;;;;;;;10.93;5.78;;;;;;;33.96;22.53;100187.03;5068600;28;20047;-39
2023/09/24 07:38:47;;;;;;;12.45;5.90;;;;;;;34.15;22.00;100178.28;5076781;28;20071;-39
2023/09/24 07:41:13;;;;;;;11.38;6.05;;;;;;;34.18;21.82;100169.00;5075843;28;20040;-48
2023/09/24 07:43:41;;;;;;;15.00;5.93;;;;;;;34.73;21.59;100163.69;5059843;28;20041;-39
2023/09/24 07:46:12;;;;;;;13.10;5.82;;;;;;;35.04;21.13;100184.88;5068924;28;20048;-39
2023/09/24 07:48:47;;;;;;;13.73;6.47;;;;;;;34.18;21.39;100177.09;5062608;28;20051;-38
2023/09/24 07:51:16;;;;;;;13.35;6.05;;;;;;;34.36;21.60;100182.88;5070602;28;20064;-39
2023/09/24 07:53:47;;;;;;;12.68;5.65;;;;;;;34.08;21.42;100171.16;5074404;28;20036;-39
2023/09/24 07:56:13;;;;;;;10.27;5.78;;;;;;;33.35;22.12;100182.94;5067317;28;20071;-39
2023/09/24 07:58:40;;;;;;;12.43;5.93;;;;;;;32.93;22.50;100162.00;5066828;28;20040;-39
2023/09/24 08:01:11;;;;;;;15.07;5.35;;;;;;;32.97;22.33;100166.84;5075436;28;20404;-38
2023/09/24 08:03:38;;;;;;;11.30;5.80;;;;;;;32.71;22.61;100153.78;5080966;28;20044;-40
2023/09/24 08:06:05;;;;;;;14.13;6.15;;;;;;;33.22;22.36;100161.19;5073133;28;20044;-40
2023/09/24 08:08:33;;;;;;;14.40;5.57;;;;;;;33.36;22.10;100179.22;5061980;28;20052;-38
2023/09/24 08:10:59;;;;;;;15.20;5.32;;;;;;;32.94;22.27;100167.22;5080519;28;20443;-38
2023/09/24 08:13:25;;;;;;;9.82;4.60;;;;;;;32.98;22.81;100164.97;5070209;28;20326;-40
2023/09/24 08:15:51;;;;;;;12.00;5.25;;;;;;;32.93;22.76;100162.00;5077727;28;21502;-40
2023/09/24 08:18:17;;;;;;;10.85;4.93;;;;;;;33.19;22.48;100167.78;5080442;28;20040;-39
2023/09/24 08:20:44;;;;;;;11.85;4.78;;;;;;;32.58;22.91;100144.66;5076814;28;20047;-39
2023/09/24 08:23:12;;;;;;;12.18;5.22;;;;;;;33.03;22.77;100165.25;5049330;28;20062;-40
2023/09/24 08:25:40;;;;;;;;;;;;;;;33.31;22.52;100149.28;5059340;28;20043;-38
2023/09/24 08:28:07;;;;;;;12.33;5.13;;;;;;;33.09;22.59;100146.47;5074273;28;20036;-39
2023/09/24 08:30:33;;;;;;;9.13;4.90;;;;;;;33.01;22.76;100145.75;5075300;28;20048;-39
2023/09/24 08:32:59;;;;;;;13.73;4.90;;;;;;;32.58;23.15;100144.66;5083040;28;20036;-39
2023/09/24 08:35:26;;;;;;;10.98;5.10;;;;;;;32.59;23.10;100146.34;5077924;28;20078;-39
2023/09/24 08:37:52;;;;;;;9.45;4.50;;;;;;;33.13;22.84;100150.47;5061065;28;20044;-38
2023/09/24 08:40:18;;;;;;;14.23;5.10;;;;;;;33.54;22.44;100150.00;5072125;28;20047;-38
2023/09/24 08:42:50;;;;;;;13.18;5.07;;;;;;;33.13;22.55;100122.72;5079448;28;20048;-40
2023/09/24 08:45:20;;;;;;;11.45;4.85;;;;;;;32.88;23.08;100140.16;5074102;28;20528;-40
2023/09/24 08:47:47;;;;;;;8.52;5.20;;;;;;;33.74;22.51;100143.00;5062669;28;21142;-38
2023/09/24 08:50:14;;;;;;;9.75;5.28;;;;;;;34.13;22.06;100134.44;5093313;28;20050;-39
2023/09/24 08:52:42;;;;;;;9.20;5.40;;;;;;;33.68;22.39;100132.97;5061291;28;20089;-41
2023/09/24 08:55:11;;;;;;;17.55;5.40;;;;;;;33.70;22.15;100120.13;5073029;28;20048;-38
2023/09/24 08:57:39;;;;;;;8.95;4.50;;;;;;;34.56;21.53;100131.72;5076745;28;20197;-40
2023/09/24 09:00:15;;;;;;;11.70;5.50;;;;;;;34.68;21.63;100135.56;5076947;28;20051;-40
2023/09/24 09:02:45;;;;;;;12.52;5.00;;;;;;;34.38;21.63;100129.53;5071763;28;20520;-39
2023/09/24 09:05:24;;;;;;;10.70;5.07;;;;;;;33.41;22.36;100128.25;5070553;28;20051;-40
2023/09/24 09:07:58;;;;;;;12.13;5.43;;;;;;;33.40;22.30;100137.38;5069746;28;20048;-38
2023/09/24 09:10:33;;;;;;;9.18;5.07;;;;;;;33.54;22.39;100133.81;5072729;28;20531;-37
2023/09/24 09:13:13;;;;;;;8.57;5.03;;;;;;;33.81;22.09;100127.69;5067569;28;20055;-37
2023/09/24 09:15:41;;;;;;;12.30;5.30;;;;;;;33.65;22.47;100106.34;5074109;28;20048;-41
2023/09/24 09:18:26;;;;;;;7.75;5.10;;;;;;;33.27;22.48;100127.28;5070789;28;20134;-41
2023/09/24 09:20:59;;;;;;;13.65;4.75;;;;;;;32.79;23.26;100139.44;5071108;28;20068;-40
2023/09/24 09:23:33;;;;;;;11.70;5.10;;;;;;;32.23;23.54;100095.03;5054580;28;20051;-38
2023/09/24 09:25:59;;;;;;;8.23;4.70;;;;;;;32.37;24.07;100134.59;5068462;28;20260;-39
2023/09/24 09:28:27;;;;;;;12.65;4.75;;;;;;;32.10;24.13;100151.25;5065685;28;20508;-39
2023/09/24 09:31:10;;;;;;;7.07;4.70;;;;;;;31.52;24.82;100126.56;5068213;28;20063;-40
2023/09/24 09:33:40;;;;;;;6.32;4.43;;;;;;;31.19;24.80;100121.53;5079207;28;20088;-39
2023/09/24 09:36:34;;;;;;;9.45;5.18;;;;;;;30.87;25.72;100109.03;5073931;28;20037;-39
2023/09/24 09:39:03;;;;;;;10.10;5.03;;;;;;;31.05;25.48;100118.56;5059686;28;20083;-38
2023/09/24 09:41:28;;;;;;;;;;;;;;;31.36;25.15;100112.38;5077127;28;20035;-38
2023/09/24 09:43:55;;;;;;;7.82;4.75;;;;;;;30.95;25.53;100100.94;5091118;28;19920;-38
2023/09/24 09:46:24;;;;;;;8.98;4.60;;;;;;;30.98;25.44;100098.75;5049238;28;20036;-36
2023/09/24 09:48:54;;;;;;;14.57;4.45;;;;;;;31.30;25.16;100100.47;5062544;28;20036;-39
2023/09/24 09:51:21;;;;;;;8.27;4.78;;;;;;;31.87;24.89;100103.69;5062588;28;20032;-39
2023/09/24 09:53:47;;;;;;;11.07;4.43;;;;;;;32.24;24.37;100104.78;5069899;28;20048;-38
2023/09/24 09:56:14;;;;;;;7.63;4.40;;;;;;;32.17;24.35;100076.91;5033695;28;20051;-39
2023/09/24 09:58:46;;;;;;;9.73;4.78;;;;;;;32.36;24.10;100096.06;5069000;28;20058;-39
2023/09/24 10:01:13;;;;;;;9.93;4.30;;;;;;;31.88;24.49;100094.59;5070155;28;20045;-39
2023/09/24 10:03:42;;;;;;;7.43;4.03;;;;;;;31.25;24.75;100088.59;5075531;28;20033;-37
2023/09/24 10:06:10;;;;;;;13.20;4.13;;;;;;;30.50;25.55;100090.84;5072254;28;20127;-40
2023/09/24 10:08:37;;;;;;;;;;;;;;;30.31;25.79;100089.31;5080358;28;20047;-39
2023/09/24 10:11:05;;;;;;;8.18;4.07;;;;;;;30.60;25.51;100072.69;5078636;28;19916;-39
2023/09/24 10:13:48;;;;;;;7.60;4.13;;;;;;;31.09;25.04;100076.91;5080751;28;20063;-39
2023/09/24 10:16:27;;;;;;;7.80;4.15;;;;;;;31.70;24.58;100094.06;5066832;28;20040;-40
2023/09/24 10:19:00;;;;;;;14.57;5.30;;;;;;;32.80;23.91;100087.22;5070105;28;20044;-37
2023/09/24 10:21:30;;;;;;;7.05;4.45;;;;;;;33.09;23.27;100064.81;5078288;28;20100;-44
2023/09/24 10:24:17;;;;;;;7.40;4.25;;;;;;;34.32;22.14;100096.03;5063325;28;20057;-38
2023/09/24 10:26:50;;;;;;;9.50;4.30;;;;;;;34.39;21.62;100052.88;5085065;28;20040;-39
2023/09/24 10:29:46;;;;;;;7.70;4.75;;;;;;;35.99;20.30;100090.19;5068150;28;20048;-37
2023/09/24 10:32:25;;;;;;;11.63;4.95;;;;;;;35.74;20.59;100077.44;5061252;28;20051;-37
2023/09/24 10:34:51;;;;;;;8.90;4.50;;;;;;;36.01;20.44;100074.53;5050612;28;20064;-39
2023/09/24 10:37:37;;;;;;;8.75;4.60;;;;;;;35.81;20.42;100072.88;5076464;28;20123;-39
2023/09/24 10:40:05;;;;;;;6.00;4.43;;;;;;;36.51;20.05;100072.25;5073790;28;20045;-39
2023/09/24 10:42:43;;;;;;;6.13;4.38;;;;;;;36.90;19.25;100055.91;5075905;28;20063;-40
2023/09/24 10:45:15;;;;;;;9.57;5.35;;;;;;;36.53;19.13;100071.00;5059564;28;20182;-39
2023/09/24 10:47:42;;;;;;;12.45;5.18;;;;;;;35.74;19.99;100063.91;5071520;28;20052;-37
2023/09/24 10:50:19;;;;;;;10.70;4.70;;;;;;;36.26;19.71;100063.97;5067428;28;20085;-37
2023/09/24 10:52:48;;;;;;;6.07;4.33;;;;;;;36.82;19.23;100077.84;5085382;28;20039;-37
2023/09/24 10:55:15;;;;;;;12.95;5.10;;;;;;;36.74;19.31;100058.28;5063827;28;20041;-40
2023/09/24 10:57:52;;;;;;;16.00;5.65;;;;;;;36.96;19.29;100056.94;5077817;28;20044;-38
2023/09/24 11:00:20;;;;;;;18.35;5.13;;;;;;;36.97;19.03;100085.72;5068400;28;20071;-39
2023/09/24 11:02:56;;;;;;;;;;;;;;;36.24;19.46;100044.38;5065399;28;20066;-38
2023/09/24 11:05:22;;;;;;;15.00;5.20;;;;;;;36.15;19.34;100045.63;5066037;28;19924;-38
2023/09/24 11:07:48;;;;;;;8.63;4.88;;;;;;;35.70;19.71;100008.56;5036574;28;20522;-39
2023/09/24 11:10:18;;;;;;;10.77;4.80;;;;;;;36.43;19.25;100023.72;5067285;28;20050;-39
2023/09/24 11:12:53;;;;;;;12.52;4.90;;;;;;;37.44;18.84;100045.66;5070727;28;20043;-40
2023/09/24 11:15:20;;;;;;;11.18;4.97;;;;;;;37.51;18.69;100047.28;5044012;28;20144;-37
2023/09/24 11:17:47;;;;;;;9.82;4.55;;;;;;;37.77;18.49;100050.91;5074926;28;20052;-37
2023/09/24 11:20:13;;;;;;;10.82;4.53;;;;;;;36.51;19.09;100056.00;5074998;28;20040;-37
2023/09/24 11:22:40;;;;;;;14.18;4.45;;;;;;;34.83;20.93;100057.94;5075274;28;20048;-38
2023/09/24 11:25:11;;;;;;;7.30;4.70;;;;;;;33.57;22.03;100034.47;5070720;28;20040;-38
2023/09/24 11:27:49;;;;;;;7.88;4.13;;;;;;;32.93;22.66;100043.44;5066241;28;20132;-37
2023/09/24 11:30:17;;;;;;;12.13;4.13;;;;;;;32.05;23.83;100035.28;5070955;28;20129;-37
2023/09/24 11:32:44;;;;;;;11.65;4.25;;;;;;;31.17;24.53;100038.41;5046063;28;20040;-38